createdAt,value
2019-03-23T00:01:46.518Z,3.60
2019-03-23T00:04:49.070Z,3.80
2019-03-23T00:07:51.759Z,4.10
2019-03-23T00:10:54.104Z,4.00
2019-03-23T00:13:56.279Z,4.65
2019-03-23T00:16:58.519Z,3.00
2019-03-23T00:20:00.766Z,4.65
2019-03-23T00:23:03.032Z,3.22
2019-03-23T00:26:05.266Z,4.12
2019-03-23T00:29:07.512Z,3.22
2019-03-23T00:32:09.749Z,4.75
2019-03-23T00:35:12.211Z,4.65
2019-03-23T00:38:14.438Z,4.78
2019-03-23T00:41:16.670Z,5.22
2019-03-23T00:44:18.909Z,5.37
2019-03-23T00:47:21.108Z,4.87
2019-03-23T00:50:23.321Z,4.08
2019-03-23T00:53:25.594Z,5.25
2019-03-23T00:56:27.857Z,5.33
2019-03-23T00:59:30.145Z,3.40
2019-03-23T01:02:32.341Z,3.87
2019-03-23T01:05:34.585Z,3.83
2019-03-23T01:08:36.759Z,3.33
2019-03-23T01:11:39.030Z,4.12
2019-03-23T01:14:41.296Z,3.20
2019-03-23T01:17:43.558Z,4.92
2019-03-23T01:20:49.832Z,3.47
2019-03-23T01:23:49.850Z,3.20
2019-03-23T01:26:52.055Z,3.85
2019-03-23T01:29:54.402Z,4.45
2019-03-23T01:32:56.641Z,6.47
2019-03-23T01:35:58.901Z,4.62
2019-03-23T01:39:01.144Z,3.98
2019-03-23T01:42:05.421Z,3.33
2019-03-23T01:45:09.100Z,5.12
2019-03-23T01:48:11.368Z,3.50
2019-03-23T01:51:14.810Z,3.52
2019-03-23T01:54:17.040Z,4.60
2019-03-23T01:57:19.304Z,4.05
2019-03-23T02:00:21.539Z,4.03
2019-03-23T02:03:23.839Z,3.80
2019-03-23T02:06:26.075Z,4.37
2019-03-23T02:09:28.312Z,3.50
2019-03-23T02:12:30.655Z,4.70
2019-03-23T02:15:32.911Z,3.77
2019-03-23T02:18:35.173Z,3.65
2019-03-23T02:21:37.474Z,3.85
2019-03-23T02:24:39.692Z,4.20
2019-03-23T02:27:41.936Z,4.78
2019-03-23T02:30:44.185Z,4.05
2019-03-23T02:33:46.460Z,3.22
2019-03-23T02:36:48.683Z,4.78
2019-03-23T02:39:50.869Z,4.25
2019-03-23T02:42:53.158Z,3.45
2019-03-23T02:45:55.359Z,4.62
2019-03-23T02:48:57.621Z,3.75
2019-03-23T02:51:59.894Z,6.75
2019-03-23T02:55:02.160Z,3.92
2019-03-23T02:58:04.511Z,4.00
2019-03-23T03:01:06.834Z,3.83
2019-03-23T03:04:09.097Z,3.62
2019-03-23T03:07:11.333Z,5.05
2019-03-23T03:10:16.676Z,3.87
2019-03-23T03:13:18.960Z,3.75
2019-03-23T03:16:21.304Z,4.47
2019-03-23T03:19:23.558Z,3.72
2019-03-23T03:22:26.890Z,4.12
2019-03-23T03:25:29.158Z,4.97
2019-03-23T03:28:31.415Z,4.03
2019-03-23T03:31:33.699Z,4.10
2019-03-23T03:34:37.089Z,4.08
2019-03-23T03:37:39.328Z,3.35
2019-03-23T03:40:42.591Z,3.50
2019-03-23T03:43:45.947Z,3.62
2019-03-23T03:46:48.176Z,3.98
2019-03-23T03:49:50.423Z,3.42
2019-03-23T03:52:52.632Z,4.28
2019-03-23T03:55:54.857Z,4.53
2019-03-23T03:58:57.239Z,3.75
2019-03-23T04:01:59.481Z,3.95
2019-03-23T04:05:01.765Z,3.70
2019-03-23T04:08:11.340Z,3.67
2019-03-23T04:11:07.982Z,3.92
2019-03-23T04:14:10.237Z,3.42
2019-03-23T04:17:12.496Z,4.28
2019-03-23T04:20:15.088Z,3.40
2019-03-23T04:23:17.339Z,2.85
2019-03-23T04:26:19.567Z,3.30
2019-03-23T04:29:21.785Z,3.80
2019-03-23T04:32:24.072Z,4.87
2019-03-23T04:35:26.365Z,4.12
2019-03-23T04:38:28.650Z,4.08
2019-03-23T04:41:30.841Z,4.03
2019-03-23T04:44:33.112Z,4.33
2019-03-23T04:47:35.394Z,3.50
2019-03-23T04:50:38.715Z,3.37
2019-03-23T04:53:41.051Z,4.20
2019-03-23T04:56:43.370Z,4.05
2019-03-23T04:59:45.621Z,4.62
2019-03-23T05:02:47.887Z,4.05
2019-03-23T05:05:50.118Z,3.72
2019-03-23T05:08:52.359Z,4.35
2019-03-23T05:11:54.670Z,5.55
2019-03-23T05:14:56.899Z,4.72
2019-03-23T05:17:59.150Z,3.98
2019-03-23T05:21:01.452Z,5.15
2019-03-23T05:24:03.714Z,4.60
2019-03-23T05:27:05.978Z,3.67
2019-03-23T05:30:09.316Z,6.80
2019-03-23T05:33:11.560Z,4.42
2019-03-23T05:36:15.359Z,3.72
2019-03-23T05:39:17.868Z,3.42
2019-03-23T05:42:20.119Z,3.95
2019-03-23T05:45:22.373Z,3.42
2019-03-23T05:48:24.675Z,3.60
2019-03-23T05:51:26.947Z,4.35
2019-03-23T05:54:29.205Z,4.45
2019-03-23T05:57:31.476Z,5.00
2019-03-23T06:00:33.754Z,3.72
2019-03-23T06:03:36.027Z,3.83
2019-03-23T06:06:38.284Z,4.70
2019-03-23T06:09:40.597Z,3.75
2019-03-23T06:12:42.863Z,5.15
2019-03-23T06:15:45.185Z,5.28
2019-03-23T06:18:47.483Z,3.60
2019-03-23T06:21:49.777Z,3.52
2019-03-23T06:24:52.017Z,7.10
2019-03-23T06:27:56.201Z,3.65
2019-03-23T06:30:58.291Z,4.33
2019-03-23T06:34:00.545Z,4.00
2019-03-23T06:37:03.874Z,4.75
2019-03-23T06:40:07.461Z,3.70
2019-03-23T06:43:09.703Z,4.45
2019-03-23T06:46:11.983Z,4.00
2019-03-23T06:49:14.355Z,3.60
2019-03-23T06:52:16.637Z,4.62
2019-03-23T06:55:18.874Z,6.22
2019-03-23T06:58:21.426Z,7.30
2019-03-23T07:01:23.714Z,6.55
2019-03-23T07:04:26.880Z,4.22
2019-03-23T07:07:29.181Z,4.50
2019-03-23T07:10:31.402Z,4.00
2019-03-23T07:13:33.710Z,3.67
2019-03-23T07:16:36.034Z,4.40
2019-03-23T07:19:38.298Z,3.85
2019-03-23T07:22:40.676Z,3.72
2019-03-23T07:25:42.925Z,4.30
2019-03-23T07:28:45.219Z,3.58
2019-03-23T07:31:47.448Z,3.80
2019-03-23T07:34:49.700Z,3.12
2019-03-23T07:37:52.053Z,3.42
2019-03-23T07:40:54.386Z,2.90
2019-03-23T07:43:56.654Z,3.02
2019-03-23T07:46:59.185Z,3.90
2019-03-23T07:50:01.479Z,3.05
2019-03-23T07:53:03.865Z,3.33
2019-03-23T07:56:06.147Z,3.37
2019-03-23T07:59:08.425Z,3.45
2019-03-23T08:02:10.741Z,3.10
2019-03-23T08:05:13.086Z,3.17
2019-03-23T08:08:31.126Z,3.33
2019-03-23T08:11:33.377Z,3.45
2019-03-23T08:14:36.567Z,2.92
2019-03-23T08:17:38.863Z,3.33
2019-03-23T08:20:41.125Z,2.62
2019-03-23T08:23:43.431Z,2.80
2019-03-23T08:26:46.752Z,2.90
2019-03-23T08:29:49.014Z,3.60
2019-03-23T08:32:51.248Z,4.22
2019-03-23T08:35:53.513Z,3.60
2019-03-23T08:38:56.318Z,3.25
2019-03-23T08:41:58.531Z,3.30
2019-03-23T08:45:00.776Z,3.37
2019-03-23T08:48:03.037Z,2.95
2019-03-23T08:51:06.950Z,4.35
2019-03-23T08:54:09.340Z,6.72
2019-03-23T08:57:11.639Z,8.40
2019-03-23T09:00:14.278Z,7.10
2019-03-23T09:03:16.594Z,9.60
2019-03-23T09:06:18.859Z,7.83
2019-03-23T09:09:21.111Z,9.20
2019-03-23T09:12:23.394Z,10.40
2019-03-23T09:15:25.757Z,9.85
2019-03-23T09:18:28.082Z,12.88
2019-03-23T09:21:30.330Z,7.33
2019-03-23T09:24:32.548Z,7.33
2019-03-23T09:27:34.788Z,8.20
2019-03-23T09:30:37.108Z,10.60
2019-03-23T09:33:41.539Z,11.10
2019-03-23T09:36:43.831Z,11.20
2019-03-23T09:39:46.189Z,14.07
2019-03-23T09:42:49.224Z,13.65
2019-03-23T09:45:51.493Z,15.68
2019-03-23T09:48:53.859Z,14.58
2019-03-23T09:51:56.192Z,11.93
2019-03-23T09:54:58.460Z,12.15
2019-03-23T09:58:00.780Z,11.48
2019-03-23T10:01:03.060Z,13.32
2019-03-23T10:04:05.422Z,13.83
2019-03-23T10:07:07.725Z,12.50
2019-03-23T10:10:20.988Z,14.58
2019-03-23T10:13:14.328Z,14.63
2019-03-23T10:16:16.637Z,12.33
2019-03-23T10:19:19.064Z,15.03
2019-03-23T10:22:21.402Z,13.08
2019-03-23T10:25:24.864Z,13.62
2019-03-23T10:28:27.141Z,13.40
2019-03-23T10:31:29.411Z,15.23
2019-03-23T10:34:31.750Z,13.50
2019-03-23T10:37:34.022Z,15.40
2019-03-23T10:40:36.323Z,15.03
2019-03-23T10:43:39.121Z,16.32
2019-03-23T10:46:41.504Z,19.17
2019-03-23T10:49:43.806Z,19.40
2019-03-23T10:52:46.138Z,16.67
2019-03-23T10:55:48.431Z,15.85
2019-03-23T10:58:50.794Z,15.48
2019-03-23T11:01:53.065Z,15.58
2019-03-23T11:04:55.384Z,16.67
2019-03-23T11:07:57.734Z,13.38
2019-03-23T11:10:59.972Z,16.73
2019-03-23T11:14:02.246Z,17.75
2019-03-23T11:17:04.589Z,16.25
2019-03-23T11:20:07.624Z,15.38
2019-03-23T11:23:09.886Z,15.53
2019-03-23T11:26:12.166Z,21.23
2019-03-23T11:29:14.464Z,19.85
2019-03-23T11:32:16.715Z,18.60
2019-03-23T11:35:19.122Z,22.55
2019-03-23T11:38:21.351Z,17.98
2019-03-23T11:41:23.605Z,19.32
2019-03-23T11:44:25.905Z,19.87
2019-03-23T11:47:28.169Z,21.60
2019-03-23T11:50:30.435Z,20.08
2019-03-23T11:53:32.700Z,16.73
2019-03-23T11:56:34.954Z,17.10
2019-03-23T11:59:37.306Z,13.90
2019-03-23T12:02:39.608Z,21.33
2019-03-23T12:05:42.400Z,17.40
2019-03-23T12:08:44.660Z,20.80
2019-03-23T12:11:47.025Z,21.42
2019-03-23T12:14:49.299Z,22.87
2019-03-23T12:17:51.591Z,21.35
2019-03-23T12:20:53.923Z,18.10
2019-03-23T12:23:56.213Z,24.85
2019-03-23T12:26:58.518Z,19.55
2019-03-23T12:30:07.055Z,19.00
2019-03-23T12:33:04.874Z,16.07
2019-03-23T12:36:07.154Z,24.12
2019-03-23T12:39:09.425Z,18.07
2019-03-23T12:42:11.806Z,21.70
2019-03-23T12:45:14.122Z,19.35
2019-03-23T12:48:16.403Z,21.70
2019-03-23T12:51:18.683Z,20.08
2019-03-23T12:54:20.940Z,19.07
2019-03-23T12:57:23.263Z,24.55
2019-03-23T13:00:25.559Z,17.00
2019-03-23T13:03:27.920Z,22.90
2019-03-23T13:06:30.230Z,19.87
2019-03-23T13:09:32.504Z,14.83
2019-03-23T13:12:34.837Z,18.02
2019-03-23T13:15:37.114Z,21.97
2019-03-23T13:18:39.424Z,18.57
2019-03-23T13:21:41.730Z,20.92
2019-03-23T13:24:44.006Z,15.72
2019-03-23T13:27:46.310Z,18.80
2019-03-23T13:30:48.619Z,21.07
2019-03-23T13:33:50.945Z,24.98
2019-03-23T13:36:53.230Z,19.27
2019-03-23T13:39:55.493Z,19.85
2019-03-23T13:42:57.779Z,18.15
2019-03-23T13:46:00.075Z,19.30
2019-03-23T13:49:02.377Z,21.57
2019-03-23T13:52:04.671Z,22.30
2019-03-23T13:55:07.660Z,28.12
2019-03-23T13:58:16.327Z,22.40
2019-03-23T14:01:18.600Z,20.57
2019-03-23T14:04:20.960Z,23.70
2019-03-23T14:07:23.254Z,19.92
2019-03-23T14:10:25.555Z,25.80
2019-03-23T14:13:27.925Z,22.77
2019-03-23T14:16:30.183Z,23.05
2019-03-23T14:19:32.488Z,19.73
2019-03-23T14:22:34.775Z,23.18
2019-03-23T14:25:37.081Z,20.75
2019-03-23T14:28:39.373Z,23.07
2019-03-23T14:31:41.677Z,20.82
2019-03-23T14:34:43.997Z,23.38
2019-03-23T14:37:46.271Z,19.50
2019-03-23T14:40:48.552Z,21.37
2019-03-23T14:43:50.823Z,24.20
2019-03-23T14:46:53.142Z,26.97
2019-03-23T14:49:55.429Z,24.52
2019-03-23T14:52:57.720Z,21.15
2019-03-23T14:56:00.020Z,25.02
2019-03-23T14:59:02.303Z,22.27
2019-03-23T15:02:05.746Z,22.75
2019-03-23T15:05:08.613Z,21.73
2019-03-23T15:08:10.969Z,26.12
2019-03-23T15:11:13.265Z,26.27
2019-03-23T15:14:15.569Z,22.40
2019-03-23T15:17:17.882Z,27.90
2019-03-23T15:20:20.283Z,25.50
2019-03-23T15:23:22.638Z,26.75
2019-03-23T15:26:24.903Z,20.68
2019-03-23T15:29:28.256Z,25.37
2019-03-23T15:32:30.609Z,27.52
2019-03-23T15:35:32.941Z,21.20
2019-03-23T15:38:35.239Z,26.70
2019-03-23T15:41:37.535Z,25.17
2019-03-23T15:44:39.801Z,27.85
2019-03-23T15:47:42.076Z,29.35
2019-03-23T15:50:44.385Z,24.92
2019-03-23T15:53:46.664Z,25.40
2019-03-23T15:56:48.948Z,24.45
2019-03-23T15:59:51.660Z,25.00
2019-03-23T16:02:54.010Z,24.85
2019-03-23T16:05:56.302Z,23.38
2019-03-23T16:08:58.592Z,21.82
2019-03-23T16:12:00.854Z,22.52
2019-03-23T16:15:03.157Z,22.17
2019-03-23T16:18:05.454Z,21.07
2019-03-23T16:21:07.734Z,19.77
2019-03-23T16:24:10.027Z,18.42
2019-03-23T16:27:12.321Z,9.05
2019-03-23T16:30:17.791Z,6.20
2019-03-23T16:33:20.093Z,5.53
2019-03-23T16:36:23.459Z,8.98
2019-03-23T16:39:25.713Z,6.80
2019-03-23T16:42:28.022Z,11.48
2019-03-23T16:45:30.335Z,12.53
2019-03-23T16:48:32.627Z,9.73
2019-03-23T16:51:34.910Z,10.38
2019-03-23T16:54:37.181Z,7.92
2019-03-23T16:57:39.464Z,6.72
2019-03-23T17:00:45.224Z,14.35
2019-03-23T17:03:47.681Z,12.43
2019-03-23T17:06:49.983Z,13.75
2019-03-23T17:09:52.255Z,11.73
2019-03-23T17:12:55.581Z,9.55
2019-03-23T17:15:58.216Z,11.95
2019-03-23T17:19:00.453Z,11.22
2019-03-23T17:22:02.780Z,9.15
2019-03-23T17:25:08.098Z,9.08
2019-03-23T17:28:10.437Z,9.00
2019-03-23T17:31:12.713Z,11.83
2019-03-23T17:34:15.073Z,10.13
2019-03-23T17:37:17.349Z,7.00
2019-03-23T17:40:19.712Z,10.88
2019-03-23T17:43:22.041Z,6.62
2019-03-23T17:46:24.306Z,6.45
2019-03-23T17:49:26.783Z,6.28
2019-03-23T17:52:29.544Z,6.08
2019-03-23T17:55:31.794Z,3.72
2019-03-23T17:58:34.145Z,4.10
2019-03-23T18:01:36.469Z,8.10
2019-03-23T18:04:38.770Z,4.58
2019-03-23T18:07:41.044Z,2.77
2019-03-23T18:10:44.536Z,6.15
2019-03-23T18:13:46.843Z,5.00
2019-03-23T18:16:49.135Z,3.98
2019-03-23T18:19:51.421Z,5.03
2019-03-23T18:22:53.707Z,5.30
2019-03-23T18:25:56.088Z,5.87
2019-03-23T18:28:58.369Z,3.87
2019-03-23T18:32:00.686Z,4.67
2019-03-23T18:35:03.272Z,4.72
2019-03-23T18:38:05.640Z,4.03
2019-03-23T18:41:07.936Z,3.05
2019-03-23T18:44:16.226Z,3.35
2019-03-23T18:47:14.257Z,6.30
2019-03-23T18:50:16.561Z,5.28
2019-03-23T18:53:18.866Z,5.62
2019-03-23T18:56:21.281Z,6.00
2019-03-23T18:59:23.633Z,4.05
2019-03-23T19:02:25.994Z,3.75
2019-03-23T19:05:28.363Z,4.35
2019-03-23T19:08:30.642Z,5.97
2019-03-23T19:11:32.944Z,3.65
2019-03-23T19:14:35.379Z,4.05
2019-03-23T19:17:37.973Z,3.37
2019-03-23T19:20:40.362Z,4.45
2019-03-23T19:23:42.708Z,4.00
2019-03-23T19:26:45.040Z,4.65
2019-03-23T19:29:47.368Z,3.83
2019-03-23T19:32:49.648Z,3.35
2019-03-23T19:35:52.293Z,3.77
2019-03-23T19:38:54.595Z,3.75
2019-03-23T19:41:56.900Z,4.00
2019-03-23T19:45:00.373Z,3.65
2019-03-23T19:48:02.629Z,3.55
2019-03-23T19:51:05.035Z,3.50
2019-03-23T19:54:07.437Z,3.62
2019-03-23T19:57:09.707Z,4.00
2019-03-23T20:00:12.872Z,3.70
2019-03-23T20:03:15.187Z,3.67
2019-03-23T20:06:17.534Z,3.58
2019-03-23T20:09:19.820Z,3.58
2019-03-23T20:12:22.111Z,4.97
2019-03-23T20:15:25.479Z,6.30
2019-03-23T20:18:27.780Z,4.80
2019-03-23T20:21:30.107Z,6.08
2019-03-23T20:24:32.395Z,4.65
2019-03-23T20:27:34.846Z,3.58
2019-03-23T20:30:37.181Z,4.62
2019-03-23T20:33:40.475Z,5.47
2019-03-23T20:36:42.739Z,4.17
2019-03-23T20:39:45.089Z,5.05
2019-03-23T20:42:47.359Z,5.03
2019-03-23T20:45:49.956Z,5.92
2019-03-23T20:48:52.334Z,4.15
2019-03-23T20:51:54.710Z,6.00
2019-03-23T20:54:57.008Z,4.40
2019-03-23T20:57:59.395Z,6.15
2019-03-23T21:01:01.784Z,5.30
2019-03-23T21:04:04.150Z,5.67
2019-03-23T21:07:07.541Z,5.53
2019-03-23T21:10:11.421Z,4.92
2019-03-23T21:13:13.711Z,5.30
2019-03-23T21:16:16.038Z,4.72
2019-03-23T21:19:18.328Z,4.90
2019-03-23T21:22:20.603Z,5.20
2019-03-23T21:25:22.849Z,4.97
2019-03-23T21:28:25.170Z,5.10
2019-03-23T21:31:28.414Z,4.20
2019-03-23T21:34:30.713Z,5.35
2019-03-23T21:37:33.048Z,4.50
2019-03-23T21:40:35.776Z,5.42
2019-03-23T21:43:38.088Z,5.90
2019-03-23T21:46:40.367Z,5.80
2019-03-23T21:49:42.664Z,5.67
2019-03-23T21:52:44.950Z,5.40
2019-03-23T21:55:47.222Z,6.62
2019-03-23T21:58:49.549Z,5.17
2019-03-23T22:01:51.833Z,6.22
2019-03-23T22:04:54.128Z,5.33
2019-03-23T22:07:56.434Z,7.30
2019-03-23T22:10:58.696Z,5.92
2019-03-23T22:14:01.059Z,6.47
2019-03-23T22:17:05.705Z,6.90
2019-03-23T22:20:08.868Z,6.90
2019-03-23T22:23:11.176Z,5.87
2019-03-23T22:26:13.469Z,7.17
2019-03-23T22:29:15.761Z,6.05
2019-03-23T22:32:18.116Z,7.08
2019-03-23T22:35:20.413Z,5.53
2019-03-23T22:38:22.693Z,7.58
2019-03-23T22:41:25.005Z,6.80
2019-03-23T22:44:27.252Z,6.33
2019-03-23T22:47:29.553Z,6.10
2019-03-23T22:50:31.815Z,6.72
2019-03-23T22:53:35.103Z,8.00
2019-03-23T22:56:38.462Z,6.47
2019-03-23T22:59:40.745Z,6.67
2019-03-23T23:02:43.022Z,6.37
2019-03-23T23:05:45.514Z,6.75
2019-03-23T23:08:47.912Z,7.60
2019-03-23T23:11:50.175Z,7.10
2019-03-23T23:14:52.668Z,6.72
2019-03-23T23:17:56.409Z,8.68
2019-03-23T23:20:59.778Z,7.50
2019-03-23T23:24:02.100Z,9.33
2019-03-23T23:27:05.560Z,7.62
2019-03-23T23:30:09.734Z,7.22
2019-03-23T23:33:12.082Z,8.43
2019-03-23T23:36:15.642Z,8.38
2019-03-23T23:39:18.021Z,6.78
2019-03-23T23:42:20.350Z,8.28
2019-03-23T23:45:23.697Z,7.17
2019-03-23T23:48:26.051Z,8.00
2019-03-23T23:51:28.318Z,8.63
2019-03-23T23:54:30.594Z,7.72
2019-03-23T23:57:32.978Z,8.03
